Time;durP1;ratioP1;P1;durP2;ratioP2;P2;SDS_P1;SDS_P2;PMS_P1;PMS_P2;Temp;Humidity;BMP_temperature;BMP_pressure;BME280_temperature;BME280_humidity;BME280_pressure;Samples;Min_cycle;Max_cycle;Signal;HPM_P1;HPM_P2
2022/06/24 00:00:49;;;;;;;;;;;24.90;33.80;;;;;;6195353;23;19912;-92
2022/06/24 00:03:32;;;;;;;;;;;24.80;33.80;;;;;;6221363;23;19979;-92
2022/06/24 00:05:57;;;;;;;;;;;24.80;33.90;;;;;;6196165;23;19924;-91
2022/06/24 00:08:25;;;;;;;;;;;24.80;34.30;;;;;;6221763;23;19912;-92
2022/06/24 00:10:51;;;;;;;;;;;24.80;34.40;;;;;;6222859;23;19908;-91
2022/06/24 00:13:17;;;;;;;;;;;24.70;34.60;;;;;;6221680;23;19954;-92
2022/06/24 00:15:43;;;;;;;;;;;24.70;34.80;;;;;;6220826;23;19908;-92
2022/06/24 00:18:16;;;;;;;;;;;24.70;34.80;;;;;;6194738;23;20321;-92
2022/06/24 00:20:49;;;;;;;;;;;24.60;35.00;;;;;;6194393;23;19904;-91
2022/06/24 00:23:15;;;;;;;;;;;24.60;35.30;;;;;;6220009;23;19995;-92
2022/06/24 00:25:42;;;;;;;;;;;24.50;35.40;;;;;;6220152;23;19915;-91
2022/06/24 00:28:09;;;;;;;;;;;24.50;35.40;;;;;;6221044;23;20241;-91
2022/06/24 00:30:36;;;;;;;;;;;24.50;35.30;;;;;;6194169;23;19908;-91
2022/06/24 00:33:12;;;;;;;;;;;24.40;35.20;;;;;;6194523;23;19987;-92
2022/06/24 00:35:39;;;;;;;;;;;24.40;35.50;;;;;;6194665;23;19994;-92
2022/06/24 00:38:20;;;;;;;;;;;24.30;35.90;;;;;;6194306;23;20228;-92
2022/06/24 00:40:47;;;;;;;;;;;24.30;36.10;;;;;;6194090;23;19950;-91
2022/06/24 00:43:45;;;;;;;;;;;24.30;36.10;;;;;;6194127;23;19908;-91
2022/06/24 00:46:16;;;;;;;;;;;24.30;35.80;;;;;;6128458;23;19915;-91
2022/06/24 00:48:58;;;;;;;;;;;24.30;35.80;;;;;;6218692;23;20216;-92
2022/06/24 00:51:31;;;;;;;;;;;24.20;35.80;;;;;;6218406;23;19912;-92
2022/06/24 00:53:56;;;;;;;;;;;24.20;35.80;;;;;;6194199;23;19915;-91
2022/06/24 00:56:34;;;;;;;;;;;24.30;35.90;;;;;;6194557;23;19912;-91
2022/06/24 00:59:00;;;;;;;;;;;24.30;35.80;;;;;;6194089;23;19908;-92
2022/06/24 01:01:30;;;;;;;;;;;24.30;36.00;;;;;;6194102;23;20011;-92
2022/06/24 01:03:59;;;;;;;;;;;24.30;35.90;;;;;;6193985;23;19908;-90
2022/06/24 01:06:25;;;;;;;;;;;24.30;35.90;;;;;;6218892;23;20264;-91
2022/06/24 01:09:02;;;;;;;;;;;24.30;35.90;;;;;;6194243;23;19912;-92
2022/06/24 01:11:38;;;;;;;;;;;24.40;35.80;;;;;;6156962;23;19917;-91
2022/06/24 01:14:05;;;;;;;;;;;24.50;35.80;;;;;;6158526;23;19927;-92
2022/06/24 01:16:34;;;;;;;;;;;24.50;35.80;;;;;;6157527;23;19976;-92
2022/06/24 01:19:03;;;;;;;;;;;24.60;35.70;;;;;;6158304;23;19956;-92
2022/06/24 01:21:42;;;;;;;;;;;24.70;35.70;;;;;;6156657;23;19909;-91
2022/06/24 01:24:23;;;;;;;;;;;24.70;35.60;;;;;;6156181;23;19915;-91
2022/06/24 01:26:57;;;;;;;;;;;24.70;35.50;;;;;;6157120;23;19920;-92
2022/06/24 01:29:26;;;;;;;;;;;24.70;35.50;;;;;;6157260;23;20322;-92
2022/06/24 01:31:59;;;;;;;;;;;24.70;35.50;;;;;;6156599;23;20265;-91
2022/06/24 01:34:24;;;;;;;;;;;24.70;35.50;;;;;;6155874;23;19924;-92
2022/06/24 01:36:50;;;;;;;;;;;24.80;35.50;;;;;;6207013;23;20313;-90
2022/06/24 01:39:16;;;;;;;;;;;24.80;35.40;;;;;;6194387;23;19908;-91
2022/06/24 01:41:41;;;;;;;;;;;24.80;35.50;;;;;;6222020;23;19915;-92
2022/06/24 01:44:07;;;;;;;;;;;24.80;35.50;;;;;;6194882;23;19943;-91
2022/06/24 01:46:33;;;;;;;;;;;24.80;35.50;;;;;;6195305;23;19908;-93
2022/06/24 01:48:58;;;;;;;;;;;24.80;35.50;;;;;;6196869;23;19912;-93
2022/06/24 01:51:27;;;;;;;;;;;24.80;35.60;;;;;;6196149;23;19961;-93
2022/06/24 01:53:53;;;;;;;;;;;24.80;35.40;;;;;;6196063;23;19987;-93
2022/06/24 01:56:18;;;;;;;;;;;24.90;35.30;;;;;;6196044;23;19918;-93
2022/06/24 01:58:44;;;;;;;;;;;24.90;35.20;;;;;;6221857;23;19915;-93
2022/06/24 02:01:11;;;;;;;;;;;24.90;35.20;;;;;;6195549;23;19919;-93
2022/06/24 02:03:38;;;;;;;;;;;24.90;35.10;;;;;;6223106;23;19913;-93
2022/06/24 02:06:05;;;;;;;;;;;24.90;35.20;;;;;;6221048;23;19912;-93
2022/06/24 02:08:31;;;;;;;;;;;24.90;35.10;;;;;;6194374;23;20317;-93
2022/06/24 02:13:42;;;;;;;;;;;24.90;35.30;;;;;;6220031;23;19943;-93
2022/06/24 02:16:07;;;;;;;;;;;24.80;35.30;;;;;;6194988;23;19915;-93
2022/06/24 02:18:33;;;;;;;;;;;24.80;35.40;;;;;;6193692;23;19912;-94
2022/06/24 02:20:59;;;;;;;;;;;24.80;35.30;;;;;;6193554;23;19919;-93
2022/06/24 02:23:25;;;;;;;;;;;24.80;35.20;;;;;;6193154;23;19927;-93
2022/06/24 02:25:51;;;;;;;;;;;24.80;35.40;;;;;;6195175;23;19908;-92
2022/06/24 02:28:17;;;;;;;;;;;24.90;35.30;;;;;;6220520;23;19908;-93
2022/06/24 02:30:43;;;;;;;;;;;25.00;35.40;;;;;;6194509;23;19915;-93
2022/06/24 02:33:09;;;;;;;;;;;25.10;35.90;;;;;;6194833;23;19919;-95
2022/06/24 02:35:35;;;;;;;;;;;25.00;41.80;;;;;;6194877;23;19908;-94
2022/06/24 02:38:01;;;;;;;;;;;24.30;49.90;;;;;;6168572;23;19923;-94
2022/06/24 02:43:12;;;;;;;;;;;23.30;57.20;;;;;;6221109;23;19923;-93
2022/06/24 02:45:40;;;;;;;;;;;23.20;59.40;;;;;;6194662;23;19915;-94
2022/06/24 02:48:06;;;;;;;;;;;23.00;61.10;;;;;;6193252;23;19907;-96
2022/06/24 02:50:39;;;;;;;;;;;23.00;61.70;;;;;;6196114;23;19943;-94
2022/06/24 02:53:05;;;;;;;;;;;23.00;62.10;;;;;;6171295;23;19986;-95
2022/06/24 02:55:30;;;;;;;;;;;23.10;62.50;;;;;;6195636;23;19955;-96
2022/06/24 02:57:56;;;;;;;;;;;23.10;62.40;;;;;;6195673;23;19916;-95
2022/06/24 03:00:21;;;;;;;;;;;23.10;62.70;;;;;;6223883;23;19912;-94
2022/06/24 03:02:47;;;;;;;;;;;23.10;63.00;;;;;;6196891;23;19912;-94
2022/06/24 03:05:13;;;;;;;;;;;23.10;63.30;;;;;;6222191;23;19958;-95
2022/06/24 03:07:38;;;;;;;;;;;23.10;63.40;;;;;;6196724;23;19916;-95
2022/06/24 03:10:04;;;;;;;;;;;23.10;63.60;;;;;;6170176;23;19979;-94
2022/06/24 03:12:30;;;;;;;;;;;23.00;63.90;;;;;;6194064;23;19916;-93
2022/06/24 03:14:55;;;;;;;;;;;23.10;64.20;;;;;;6194164;23;19912;-94
2022/06/24 03:17:21;;;;;;;;;;;23.10;64.50;;;;;;6194715;23;19908;-93
2022/06/24 03:19:46;;;;;;;;;;;23.20;64.60;;;;;;6221679;23;19954;-94
2022/06/24 03:22:12;;;;;;;;;;;23.30;64.80;;;;;;6168904;23;19911;-90
2022/06/24 03:24:37;;;;;;;;;;;23.40;65.00;;;;;;6218579;23;19916;-91
2022/06/24 03:27:03;;;;;;;;;;;23.50;65.20;;;;;;6169339;23;19912;-91
2022/06/24 03:29:30;;;;;;;;;;;23.70;65.30;;;;;;6194239;23;20217;-91
2022/06/24 03:31:57;;;;;;;;;;;23.80;65.40;;;;;;6220454;23;19962;-91
2022/06/24 03:34:22;;;;;;;;;;;23.80;65.40;;;;;;6220722;23;19942;-93
2022/06/24 03:36:49;;;;;;;;;;;23.80;65.30;;;;;;6193941;23;19936;-92
2022/06/24 03:39:14;;;;;;;;;;;23.80;65.10;;;;;;6220063;23;19908;-93
2022/06/24 03:41:40;;;;;;;;;;;23.80;65.10;;;;;;6194991;23;20294;-92
2022/06/24 03:44:06;;;;;;;;;;;23.70;65.50;;;;;;6195862;23;19948;-92
2022/06/24 03:46:31;;;;;;;;;;;23.70;65.90;;;;;;6195294;23;20218;-92
2022/06/24 03:48:57;;;;;;;;;;;23.80;66.20;;;;;;6219275;23;19908;-93
2022/06/24 03:51:22;;;;;;;;;;;23.90;67.00;;;;;;6191982;23;19920;-92
2022/06/24 03:53:48;;;;;;;;;;;24.10;67.20;;;;;;6193509;23;19923;-92
2022/06/24 03:56:14;;;;;;;;;;;24.30;67.30;;;;;;6219725;23;20014;-92
2022/06/24 03:58:40;;;;;;;;;;;24.50;67.20;;;;;;6218182;23;20233;-92
2022/06/24 04:01:05;;;;;;;;;;;24.70;67.10;;;;;;6220366;23;19912;-93
2022/06/24 04:03:31;;;;;;;;;;;24.80;66.90;;;;;;6220829;23;19908;-91
2022/06/24 04:05:56;;;;;;;;;;;24.90;66.60;;;;;;6194584;23;19912;-93
2022/06/24 04:08:23;;;;;;;;;;;24.90;66.40;;;;;;6194907;23;19904;-92
2022/06/24 04:10:51;;;;;;;;;;;24.90;65.80;;;;;;6221037;23;19912;-92
2022/06/24 04:13:17;;;;;;;;;;;24.80;65.70;;;;;;6194159;23;19995;-92
2022/06/24 04:15:43;;;;;;;;;;;24.80;66.00;;;;;;6194451;23;20265;-92
2022/06/24 04:18:09;;;;;;;;;;;24.80;66.40;;;;;;6219152;23;19934;-92
2022/06/24 04:20:34;;;;;;;;;;;24.90;66.50;;;;;;6219667;23;20320;-91
2022/06/24 04:23:00;;;;;;;;;;;25.00;66.60;;;;;;6193121;23;20348;-91
2022/06/24 04:25:25;;;;;;;;;;;25.10;67.00;;;;;;6192317;23;19919;-91
2022/06/24 04:27:51;;;;;;;;;;;25.20;67.30;;;;;;6193193;23;19908;-91
2022/06/24 04:30:16;;;;;;;;;;;25.30;66.90;;;;;;6193284;23;19962;-91
2022/06/24 04:32:42;;;;;;;;;;;25.40;67.00;;;;;;6193437;23;19918;-91
2022/06/24 04:35:08;;;;;;;;;;;25.60;67.60;;;;;;6194322;23;19912;-91
2022/06/24 04:37:39;;;;;;;;;;;25.90;68.20;;;;;;6194574;23;19904;-91
2022/06/24 04:40:14;;;;;;;;;;;26.20;68.90;;;;;;6169286;23;19955;-92
2022/06/24 04:42:41;;;;;;;;;;;26.60;69.30;;;;;;6194860;23;19912;-91
2022/06/24 04:45:07;;;;;;;;;;;27.00;69.30;;;;;;6218450;23;19908;-91
2022/06/24 04:47:32;;;;;;;;;;;27.40;69.90;;;;;;6193156;23;20348;-90
2022/06/24 04:50:00;;;;;;;;;;;27.90;70.20;;;;;;6219901;23;19911;-91
2022/06/24 04:52:26;;;;;;;;;;;28.40;70.60;;;;;;6193928;23;19916;-91
2022/06/24 04:54:51;;;;;;;;;;;28.80;70.80;;;;;;6191366;23;19919;-92
2022/06/24 04:57:17;;;;;;;;;;;29.40;70.90;;;;;;6192333;23;20293;-91
2022/06/24 04:59:42;;;;;;;;;;;29.90;70.90;;;;;;6191838;23;20313;-92
2022/06/24 05:02:09;;;;;;;;;;;30.40;70.90;;;;;;6221732;23;19912;-91
2022/06/24 05:04:38;;;;;;;;;;;30.90;70.70;;;;;;6193595;23;19914;-92
2022/06/24 05:07:04;;;;;;;;;;;31.50;70.60;;;;;;6193555;23;19995;-92
2022/06/24 05:09:29;;;;;;;;;;;31.90;70.10;;;;;;6193167;23;20317;-93
2022/06/24 05:12:27;;;;;;;;;;;32.30;69.50;;;;;;6193086;23;19962;-93
2022/06/24 05:14:53;;;;;;;;;;;32.80;68.70;;;;;;6212099;23;20244;-92
2022/06/24 05:17:20;;;;;;;;;;;33.20;68.30;;;;;;6193537;23;19904;-92
2022/06/24 05:19:45;;;;;;;;;;;33.60;68.20;;;;;;6193947;23;19980;-92
2022/06/24 05:22:11;;;;;;;;;;;34.00;68.40;;;;;;6192806;23;19954;-93
2022/06/24 05:24:37;;;;;;;;;;;34.40;68.40;;;;;;6194048;23;20317;-91
2022/06/24 05:27:03;;;;;;;;;;;34.80;68.40;;;;;;6197481;23;19966;-92
2022/06/24 05:29:29;;;;;;;;;;;35.00;66.80;;;;;;6221611;23;19912;-91
2022/06/24 05:31:54;;;;;;;;;;;35.00;66.40;;;;;;6193442;23;20325;-91
2022/06/24 05:34:20;;;;;;;;;;;34.90;66.00;;;;;;6221102;23;19908;-91
2022/06/24 05:36:45;;;;;;;;;;;34.80;65.70;;;;;;6219415;23;19915;-91
2022/06/24 05:39:11;;;;;;;;;;;34.50;65.80;;;;;;6218296;23;19908;-92
2022/06/24 05:41:41;;;;;;;;;;;34.50;66.50;;;;;;6195719;23;19930;-92
2022/06/24 05:44:07;;;;;;;;;;;34.70;66.90;;;;;;6222153;23;20316;-92
2022/06/24 05:46:32;;;;;;;;;;;34.90;66.60;;;;;;6195444;23;19943;-91
2022/06/24 05:48:59;;;;;;;;;;;35.20;66.40;;;;;;6222181;23;19919;-89
2022/06/24 05:51:25;;;;;;;;;;;35.50;67.10;;;;;;6194187;23;20002;-91
2022/06/24 05:56:35;;;;;;;;;;;36.00;66.10;;;;;;6218671;23;19955;-91
2022/06/24 05:59:04;;;;;;;;;;;36.30;66.80;;;;;;6216456;23;19904;-91
2022/06/24 06:01:39;;;;;;;;;;;36.50;66.00;;;;;;6192004;23;20404;-92
2022/06/24 06:04:07;;;;;;;;;;;36.70;66.20;;;;;;6192506;23;19979;-92
2022/06/24 06:06:34;;;;;;;;;;;36.80;64.80;;;;;;6191258;23;19964;-93
2022/06/24 06:09:00;;;;;;;;;;;36.60;59.20;;;;;;6192732;23;19911;-92
2022/06/24 06:11:26;;;;;;;;;;;36.30;58.00;;;;;;6192238;23;19991;-91
2022/06/24 06:13:54;;;;;;;;;;;35.90;54.80;;;;;;6192053;23;19888;-89
2022/06/24 06:16:21;;;;;;;;;;;35.60;56.90;;;;;;6221542;23;19912;-91
2022/06/24 06:18:48;;;;;;;;;;;35.20;55.70;;;;;;6189295;23;19908;-90
2022/06/24 06:21:15;;;;;;;;;;;34.90;54.70;;;;;;6191351;23;20340;-91
2022/06/24 06:23:41;;;;;;;;;;;34.60;52.50;;;;;;6168201;23;20391;-91
2022/06/24 06:26:08;;;;;;;;;;;34.30;52.60;;;;;;6219601;23;19916;-91
2022/06/24 06:28:34;;;;;;;;;;;34.10;53.40;;;;;;6218026;23;19904;-90
2022/06/24 06:31:00;;;;;;;;;;;34.20;56.10;;;;;;6191602;23;19992;-91
2022/06/24 06:33:31;;;;;;;;;;;34.30;55.50;;;;;;6165809;23;19951;-91
2022/06/24 06:36:14;;;;;;;;;;;34.40;55.90;;;;;;6218358;23;19916;-91
2022/06/24 06:38:50;;;;;;;;;;;;;;;;;;;;;
2022/06/24 06:41:19;;;;;;;;;;;35.00;54.90;;;;;;6192918;23;19987;-91
2022/06/24 06:43:44;;;;;;;;;;;35.30;53.50;;;;;;6219564;23;19920;-93
2022/06/24 06:46:10;;;;;;;;;;;35.70;51.60;;;;;;6217414;23;20321;-90
2022/06/24 06:48:36;;;;;;;;;;;35.70;46.80;;;;;;6192461;23;19919;-91
2022/06/24 06:51:01;;;;;;;;;;;35.70;44.20;;;;;;6191844;23;19904;-92
2022/06/24 06:53:30;;;;;;;;;;;35.50;43.30;;;;;;6192829;23;19916;-91
2022/06/24 06:55:56;;;;;;;;;;;35.30;44.70;;;;;;6193431;23;19916;-91
2022/06/24 06:58:22;;;;;;;;;;;35.30;45.50;;;;;;6221305;23;19919;-92
2022/06/24 07:00:48;;;;;;;;;;;35.00;43.10;;;;;;6192761;23;19911;-91
2022/06/24 07:03:15;;;;;;;;;;;34.70;42.20;;;;;;6193788;23;20305;-91
2022/06/24 07:05:42;;;;;;;;;;;34.40;41.20;;;;;;6192760;23;19904;-91
2022/06/24 07:08:09;;;;;;;;;;;34.20;42.60;;;;;;6192103;23;19912;-92
2022/06/24 07:10:34;;;;;;;;;;;34.00;43.50;;;;;;6191881;23;20541;-92
2022/06/24 07:13:00;;;;;;;;;;;33.90;43.10;;;;;;6191053;23;19977;-92
2022/06/24 07:15:26;;;;;;;;;;;33.70;43.90;;;;;;6191458;23;20389;-92
2022/06/24 07:17:51;;;;;;;;;;;33.60;44.50;;;;;;6191938;23;19962;-92
2022/06/24 07:20:18;;;;;;;;;;;33.40;44.50;;;;;;6191847;23;19943;-91
2022/06/24 07:22:44;;;;;;;;;;;33.20;44.00;;;;;;6218569;23;19935;-91
2022/06/24 07:25:12;;;;;;;;;;;32.90;43.10;;;;;;6190975;23;20331;-91
2022/06/24 07:27:37;;;;;;;;;;;32.40;43.10;;;;;;6190899;23;20325;-92
2022/06/24 07:30:04;;;;;;;;;;;31.80;44.80;;;;;;6218651;23;19923;-92
2022/06/24 07:32:29;;;;;;;;;;;31.20;46.10;;;;;;6190323;23;19985;-92
2022/06/24 07:34:55;;;;;;;;;;;30.80;47.20;;;;;;6191335;23;19915;-91
2022/06/24 07:37:24;;;;;;;;;;;30.50;48.60;;;;;;6192071;23;19938;-91
2022/06/24 07:39:49;;;;;;;;;;;30.40;49.40;;;;;;6191075;23;20355;-92
2022/06/24 07:42:15;;;;;;;;;;;30.30;49.90;;;;;;6218172;23;19920;-92
2022/06/24 07:44:42;;;;;;;;;;;30.40;49.50;;;;;;6191638;23;19957;-91
2022/06/24 07:47:09;;;;;;;;;;;30.40;48.00;;;;;;6216984;23;19958;-91
2022/06/24 07:49:34;;;;;;;;;;;30.40;47.80;;;;;;6191330;23;19982;-91
2022/06/24 07:52:00;;;;;;;;;;;30.50;48.60;;;;;;6218403;23;20281;-91
2022/06/24 07:54:25;;;;;;;;;;;30.70;48.50;;;;;;6191446;23;19912;-91
2022/06/24 07:56:57;;;;;;;;;;;30.80;48.40;;;;;;6216789;23;19927;-92
2022/06/24 07:59:34;;;;;;;;;;;30.90;48.10;;;;;;6215913;23;19931;-91
2022/06/24 08:02:01;;;;;;;;;;;30.90;47.20;;;;;;6190655;23;20288;-92
2022/06/24 08:04:28;;;;;;;;;;;31.00;47.60;;;;;;6191787;23;19912;-91
2022/06/24 08:06:54;;;;;;;;;;;31.20;47.70;;;;;;6218503;23;20329;-92
2022/06/24 08:09:21;;;;;;;;;;;31.10;48.70;;;;;;6191014;23;19908;-92
2022/06/24 08:11:47;;;;;;;;;;;31.00;50.60;;;;;;6190537;23;19911;-92
2022/06/24 08:14:14;;;;;;;;;;;30.90;51.90;;;;;;6192009;23;20002;-92
2022/06/24 08:16:40;;;;;;;;;;;30.80;52.10;;;;;;6192094;23;19982;-91
2022/06/24 08:19:05;;;;;;;;;;;30.70;52.50;;;;;;6166786;23;19962;-92
2022/06/24 08:21:31;;;;;;;;;;;30.60;52.10;;;;;;6191990;23;19908;-91
2022/06/24 08:23:56;;;;;;;;;;;30.60;51.20;;;;;;6218147;23;19994;-91
2022/06/24 08:26:23;;;;;;;;;;;30.80;52.00;;;;;;6217423;23;19924;-91
2022/06/24 08:28:49;;;;;;;;;;;31.00;52.00;;;;;;6190851;23;20034;-91
2022/06/24 08:31:14;;;;;;;;;;;31.30;48.90;;;;;;6218062;23;20309;-91
2022/06/24 08:33:45;;;;;;;;;;;31.50;48.90;;;;;;6216620;23;19995;-90
2022/06/24 08:36:11;;;;;;;;;;;31.90;47.80;;;;;;6218163;23;19908;-91
2022/06/24 08:38:37;;;;;;;;;;;32.20;46.80;;;;;;6190763;23;19919;-92
2022/06/24 08:41:03;;;;;;;;;;;32.40;46.00;;;;;;6191363;23;19904;-91
2022/06/24 08:43:32;;;;;;;;;;;32.80;45.40;;;;;;6216921;23;20229;-91
2022/06/24 08:45:58;;;;;;;;;;;33.10;45.20;;;;;;6190251;23;19934;-91
2022/06/24 08:48:26;;;;;;;;;;;33.30;42.80;;;;;;6191526;23;20241;-91
2022/06/24 08:50:51;;;;;;;;;;;33.60;44.00;;;;;;6191083;23;19912;-91
2022/06/24 08:53:17;;;;;;;;;;;33.90;43.60;;;;;;6191052;23;19962;-91
2022/06/24 08:55:44;;;;;;;;;;;34.20;43.00;;;;;;6217539;23;20321;-92
2022/06/24 08:58:11;;;;;;;;;;;34.30;41.10;;;;;;6191175;23;19979;-92
2022/06/24 09:00:36;;;;;;;;;;;34.40;39.20;;;;;;6217326;23;20340;-91
2022/06/24 09:03:04;;;;;;;;;;;34.40;39.10;;;;;;6219674;23;19904;-92
2022/06/24 09:05:31;;;;;;;;;;;34.50;38.60;;;;;;6220350;23;19939;-91
2022/06/24 09:08:05;;;;;;;;;;;34.50;38.50;;;;;;6220655;23;19994;-91
2022/06/24 09:10:31;;;;;;;;;;;34.50;38.00;;;;;;6194217;23;19992;-91
2022/06/24 09:13:22;;;;;;;;;;;34.40;37.90;;;;;;6193564;23;19920;-92
2022/06/24 09:15:54;;;;;;;;;;;34.30;37.80;;;;;;6194455;23;19907;-92
2022/06/24 09:18:23;;;;;;;;;;;34.20;37.20;;;;;;6193674;23;19930;-91
2022/06/24 09:20:50;;;;;;;;;;;34.10;37.20;;;;;;6220575;23;19912;-91
2022/06/24 09:23:18;;;;;;;;;;;33.90;37.20;;;;;;6194089;23;20011;-92
2022/06/24 09:25:48;;;;;;;;;;;33.80;36.90;;;;;;6220972;23;19912;-91
2022/06/24 09:28:20;;;;;;;;;;;33.70;37.00;;;;;;6193330;23;20015;-90
2022/06/24 09:30:45;;;;;;;;;;;33.60;37.10;;;;;;6192713;23;19956;-92
2022/06/24 09:33:14;;;;;;;;;;;33.70;37.50;;;;;;6192579;23;19920;-91
2022/06/24 09:35:43;;;;;;;;;;;33.80;36.80;;;;;;6194129;23;19916;-91
2022/06/24 09:38:08;;;;;;;;;;;33.90;36.60;;;;;;6193555;23;19912;-92
2022/06/24 09:40:34;;;;;;;;;;;33.80;36.30;;;;;;6220203;23;19970;-91
2022/06/24 09:43:01;;;;;;;;;;;33.70;36.40;;;;;;6218178;23;19908;-92
2022/06/24 09:45:42;;;;;;;;;;;33.50;36.60;;;;;;6194179;23;19943;-91
2022/06/24 09:48:08;;;;;;;;;;;33.30;36.70;;;;;;6170184;23;19919;-92
2022/06/24 09:50:34;;;;;;;;;;;33.20;37.10;;;;;;6194474;23;19904;-91
2022/06/24 09:53:01;;;;;;;;;;;33.30;37.50;;;;;;6194889;23;19920;-92
2022/06/24 09:55:33;;;;;;;;;;;33.30;37.30;;;;;;6195633;23;19908;-91
2022/06/24 09:57:59;;;;;;;;;;;33.30;37.50;;;;;;6194418;23;19912;-92
2022/06/24 10:00:43;;;;;;;;;;;33.30;37.20;;;;;;6170361;23;19991;-92
2022/06/24 10:03:11;;;;;;;;;;;33.30;37.10;;;;;;6195281;23;19954;-92
2022/06/24 10:05:37;;;;;;;;;;;33.30;37.30;;;;;;6195587;23;19983;-92
2022/06/24 10:08:05;;;;;;;;;;;33.40;37.30;;;;;;6222413;23;19916;-92
2022/06/24 10:10:33;;;;;;;;;;;33.30;36.90;;;;;;6222425;23;20313;-92
2022/06/24 10:13:01;;;;;;;;;;;33.20;37.10;;;;;;6195060;23;19923;-93
2022/06/24 10:20:35;;;;;;;;;;;32.80;37.40;;;;;;6192732;23;19931;-92
2022/06/24 10:23:01;;;;;;;;;;;32.80;37.40;;;;;;6165591;23;19964;-92
2022/06/24 10:25:46;;;;;;;;;;;33.00;37.00;;;;;;6164998;23;19908;-92
2022/06/24 10:28:11;;;;;;;;;;;33.30;36.70;;;;;;6191094;23;19916;-92
2022/06/24 10:30:40;;;;;;;;;;;33.70;36.30;;;;;;6189103;23;20348;-90
2022/06/24 10:33:12;;;;;;;;;;;34.30;35.60;;;;;;6189585;23;19923;-91
2022/06/24 10:35:57;;;;;;;;;;;34.80;34.70;;;;;;6164805;23;20351;-91
2022/06/24 10:38:23;;;;;;;;;;;35.20;33.70;;;;;;6189494;23;19916;-92
2022/06/24 10:40:49;;;;;;;;;;;35.40;33.10;;;;;;6140014;23;19939;-91
2022/06/24 10:43:40;;;;;;;;;;;35.60;32.60;;;;;;6190202;23;19909;-91
2022/06/24 10:46:12;;;;;;;;;;;35.90;32.40;;;;;;6174835;23;19912;-91
2022/06/24 10:48:58;;;;;;;;;;;36.30;32.20;;;;;;6187229;23;19912;-90
2022/06/24 10:51:28;;;;;;;;;;;36.60;31.60;;;;;;6159602;23;19912;-90
2022/06/24 10:54:09;;;;;;;;;;;36.90;31.00;;;;;;6185994;23;19912;-89
2022/06/24 10:56:42;;;;;;;;;;;37.20;30.60;;;;;;6161410;23;19912;-93
2022/06/24 10:59:08;;;;;;;;;;;37.50;30.10;;;;;;6186770;23;19934;-91
2022/06/24 11:01:33;;;;;;;;;;;37.80;29.60;;;;;;6185379;23;19908;-92
2022/06/24 11:06:29;;;;;;;;;;;38.60;29.40;;;;;;6187100;23;19923;-92
2022/06/24 11:08:55;;;;;;;;;;;39.10;28.50;;;;;;6161108;23;19912;-91
2022/06/24 11:11:27;;;;;;;;;;;39.20;27.40;;;;;;6188065;23;19936;-92
2022/06/24 11:13:55;;;;;;;;;;;39.10;27.60;;;;;;6186698;23;19940;-91
2022/06/24 11:16:21;;;;;;;;;;;39.50;27.70;;;;;;6159925;23;19995;-90
2022/06/24 11:18:49;;;;;;;;;;;39.90;26.60;;;;;;6159206;23;19915;-91
2022/06/24 11:21:17;;;;;;;;;;;40.10;26.30;;;;;;6185233;23;19911;-93
2022/06/24 11:23:45;;;;;;;;;;;40.60;26.30;;;;;;6139195;23;20680;-91
2022/06/24 11:26:36;;;;;;;;;;;40.90;25.60;;;;;;6160421;23;20349;-92
2022/06/24 11:29:02;;;;;;;;;;;41.20;25.30;;;;;;6155307;23;19912;-92
2022/06/24 11:31:29;;;;;;;;;;;41.80;24.70;;;;;;6186308;23;19912;-91
2022/06/24 11:34:02;;;;;;;;;;;41.80;24.80;;;;;;6159741;23;19916;-92
2022/06/24 11:36:28;;;;;;;;;;;41.80;24.20;;;;;;6160449;23;19955;-92
2022/06/24 11:38:55;;;;;;;;;;;41.60;24.50;;;;;;6162257;23;19905;-93
2022/06/24 11:41:24;;;;;;;;;;;41.60;24.80;;;;;;6161837;23;20422;-92
2022/06/24 11:43:50;;;;;;;;;;;41.50;24.50;;;;;;6162651;23;20372;-92
2022/06/24 11:46:18;;;;;;;;;;;41.40;24.30;;;;;;6139109;23;19983;-92
2022/06/24 11:48:44;;;;;;;;;;;41.20;24.40;;;;;;6162539;23;19913;-93
2022/06/24 11:51:17;;;;;;;;;;;41.10;24.50;;;;;;6163921;23;19912;-93
2022/06/24 11:53:54;;;;;;;;;;;41.00;24.50;;;;;;6161922;23;19916;-92
2022/06/24 11:56:20;;;;;;;;;;;40.80;24.20;;;;;;6187883;23;20237;-93
2022/06/24 11:58:45;;;;;;;;;;;40.70;23.90;;;;;;6164659;23;19904;-92
2022/06/24 12:01:11;;;;;;;;;;;40.60;23.70;;;;;;6187072;23;19948;-93
2022/06/24 12:03:36;;;;;;;;;;;40.50;24.20;;;;;;6162979;23;19904;-93
2022/06/24 12:06:03;;;;;;;;;;;40.40;24.10;;;;;;6187730;23;19936;-94
2022/06/24 12:08:30;;;;;;;;;;;40.30;23.90;;;;;;6190460;23;20513;-91
2022/06/24 12:10:56;;;;;;;;;;;40.30;23.90;;;;;;6162553;23;19935;-90
2022/06/24 12:13:27;;;;;;;;;;;40.60;24.30;;;;;;6162353;23;19913;-92
2022/06/24 12:15:53;;;;;;;;;;;40.90;24.30;;;;;;6163598;23;19908;-93
2022/06/24 12:18:22;;;;;;;;;;;41.40;23.70;;;;;;6163017;23;19942;-92
2022/06/24 12:20:57;;;;;;;;;;;41.80;23.30;;;;;;6162059;23;19923;-92
2022/06/24 12:23:23;;;;;;;;;;;42.20;23.00;;;;;;6189956;23;19904;-91
2022/06/24 12:25:49;;;;;;;;;;;42.40;22.50;;;;;;6163114;23;20235;-91
2022/06/24 12:28:17;;;;;;;;;;;42.40;22.00;;;;;;6190600;23;19909;-92
2022/06/24 12:30:44;;;;;;;;;;;42.10;21.80;;;;;;6164345;23;19912;-93
2022/06/24 12:33:12;;;;;;;;;;;41.70;21.80;;;;;;6165640;23;19912;-93
2022/06/24 12:35:38;;;;;;;;;;;41.40;22.30;;;;;;6164380;23;19912;-94
2022/06/24 12:38:07;;;;;;;;;;;41.50;22.40;;;;;;6163073;23;19943;-92
2022/06/24 12:40:35;;;;;;;;;;;41.80;22.30;;;;;;6164434;23;19979;-92
2022/06/24 12:46:37;;;;;;;;;;;41.60;22.20;;;;;;6105125;23;19961;-91
2022/06/24 12:51:57;;;;;;;;;;;42.10;21.60;;;;;;6165735;23;19927;-92
2022/06/24 12:54:22;;;;;;;;;;;41.70;21.40;;;;;;6163691;23;20264;-92
2022/06/24 12:56:49;;;;;;;;;;;41.30;21.80;;;;;;6194160;23;19915;-96
2022/06/24 12:59:15;;;;;;;;;;;40.60;22.00;;;;;;6143124;23;20317;-93
2022/06/24 13:01:48;;;;;;;;;;;39.80;22.80;;;;;;6163173;23;19912;-95
2022/06/24 13:04:34;;;;;;;;;;;39.20;23.30;;;;;;6169669;23;19905;-94
2022/06/24 13:07:10;;;;;;;;;;;38.60;23.90;;;;;;6179544;23;19919;-93
2022/06/24 13:09:37;;;;;;;;;;;38.00;24.80;;;;;;6164021;23;19892;-91
2022/06/24 13:12:03;;;;;;;;;;;37.50;26.50;;;;;;6163232;23;19935;-94
2022/06/24 13:14:29;;;;;;;;;;;36.80;28.10;;;;;;6165057;23;19909;-94
2022/06/24 13:16:55;;;;;;;;;;;36.30;29.50;;;;;;6169795;23;19908;-96
2022/06/24 13:19:21;;;;;;;;;;;35.80;30.40;;;;;;6165192;23;19918;-92
2022/06/24 13:21:46;;;;;;;;;;;35.20;32.40;;;;;;6162588;23;20321;-95
2022/06/24 13:24:19;;;;;;;;;;;34.30;35.20;;;;;;6163063;23;19905;-93
2022/06/24 13:26:46;;;;;;;;;;;33.50;40.00;;;;;;6188453;23;19912;-90
2022/06/24 13:29:11;;;;;;;;;;;32.90;45.10;;;;;;6161918;23;19983;-91
2022/06/24 13:31:37;;;;;;;;;;;32.30;48.20;;;;;;6164704;23;20356;-94
2022/06/24 13:34:03;;;;;;;;;;;31.80;51.20;;;;;;6164440;23;19936;-94
2022/06/24 13:40:02;;;;;;;;;;;;;;;;;;;;;
2022/06/24 13:45:33;;;;;;;;;;;31.50;58.60;;;;;;6174099;23;19912;-91
2022/06/24 13:48:02;;;;;;;;;;;31.80;59.20;;;;;;6160535;23;19912;-93
2022/06/24 13:50:28;;;;;;;;;;;32.20;59.20;;;;;;6162403;23;19908;-93
2022/06/24 13:52:53;;;;;;;;;;;32.50;59.00;;;;;;6163425;23;19917;-91
2022/06/24 13:55:19;;;;;;;;;;;32.80;58.00;;;;;;6163570;23;20237;-94
2022/06/24 13:57:45;;;;;;;;;;;33.00;58.00;;;;;;6161572;23;19971;-93
2022/06/24 14:00:10;;;;;;;;;;;33.10;57.40;;;;;;6161690;23;19912;-91
2022/06/24 14:02:36;;;;;;;;;;;33.20;58.60;;;;;;6161868;23;19936;-92
2022/06/24 14:05:01;;;;;;;;;;;33.30;58.00;;;;;;6163344;23;19912;-92
2022/06/24 14:07:33;;;;;;;;;;;33.40;57.70;;;;;;6161132;23;19908;-92
2022/06/24 14:09:59;;;;;;;;;;;33.50;57.70;;;;;;6189809;23;19916;-91
2022/06/24 14:12:28;;;;;;;;;;;33.60;57.40;;;;;;6187713;23;19915;-93
2022/06/24 14:14:54;;;;;;;;;;;33.70;56.70;;;;;;6161260;23;19934;-92
2022/06/24 14:17:19;;;;;;;;;;;33.80;56.50;;;;;;6161100;23;20604;-91
2022/06/24 14:19:45;;;;;;;;;;;33.80;56.20;;;;;;6187963;23;19904;-91
2022/06/24 14:22:17;;;;;;;;;;;33.80;57.10;;;;;;6188400;23;19923;-90
2022/06/24 14:24:42;;;;;;;;;;;33.80;56.60;;;;;;6161979;23;19905;-92
2022/06/24 14:27:09;;;;;;;;;;;33.70;56.30;;;;;;6161800;23;19935;-91
2022/06/24 14:29:36;;;;;;;;;;;33.70;55.60;;;;;;6162837;23;20218;-92
2022/06/24 14:32:02;;;;;;;;;;;33.80;56.20;;;;;;6163421;23;19916;-91
2022/06/24 14:34:30;;;;;;;;;;;34.00;56.60;;;;;;6163132;23;19959;-92
2022/06/24 14:36:56;;;;;;;;;;;34.40;56.60;;;;;;6164071;23;19912;-92
2022/06/24 14:42:05;;;;;;;;;;;35.00;54.40;;;;;;6166538;23;19950;-92
2022/06/24 14:44:34;;;;;;;;;;;35.20;54.40;;;;;;6162491;23;20392;-91
2022/06/24 14:47:00;;;;;;;;;;;35.40;53.00;;;;;;6162276;23;19916;-91
2022/06/24 14:49:27;;;;;;;;;;;35.70;53.90;;;;;;6189050;23;19940;-92
2022/06/24 14:51:53;;;;;;;;;;;35.90;52.00;;;;;;6159539;23;19923;-92
2022/06/24 14:54:19;;;;;;;;;;;36.00;51.90;;;;;;6160678;23;19912;-92